createdAt,value
2023-05-13T00:00:34.441Z,5.43
2023-05-13T00:03:03.385Z,5.13
2023-05-13T00:05:31.061Z,5.07
2023-05-13T00:08:02.848Z,4.63
2023-05-13T00:10:31.128Z,4.93
2023-05-13T00:12:58.651Z,5.77
2023-05-13T00:15:26.391Z,5.53
2023-05-13T00:17:53.913Z,5.70
2023-05-13T00:20:23.020Z,5.50
2023-05-13T00:22:51.589Z,5.40
2023-05-13T00:25:19.322Z,4.93
2023-05-13T00:27:46.817Z,6.50
2023-05-13T00:30:15.470Z,4.77
2023-05-13T00:32:42.981Z,5.57
2023-05-13T00:35:11.437Z,5.17
2023-05-13T00:37:40.533Z,5.60
2023-05-13T00:40:17.958Z,5.80
2023-05-13T00:42:45.655Z,5.40
2023-05-13T00:45:13.212Z,5.30
2023-05-13T00:47:42.332Z,5.23
2023-05-13T00:50:11.840Z,4.90
2023-05-13T00:52:42.650Z,4.80
2023-05-13T00:55:11.335Z,4.63
2023-05-13T00:57:40.242Z,5.13
2023-05-13T01:00:10.610Z,4.87
2023-05-13T01:02:46.722Z,4.73
2023-05-13T01:05:23.280Z,4.50
2023-05-13T01:08:00.020Z,4.77
2023-05-13T01:10:35.930Z,4.90
2023-05-13T01:13:09.610Z,5.40
2023-05-13T01:15:41.181Z,5.50
2023-05-13T01:18:13.797Z,5.50
2023-05-13T01:20:43.570Z,5.00
2023-05-13T01:23:13.363Z,5.20
2023-05-13T01:25:41.902Z,5.13
2023-05-13T01:28:10.757Z,5.03
2023-05-13T01:30:41.028Z,4.80
2023-05-13T01:33:11.186Z,5.57
2023-05-13T01:35:39.327Z,4.40
2023-05-13T01:38:09.077Z,5.40
2023-05-13T01:40:39.334Z,5.20
2023-05-13T01:43:08.137Z,5.07
2023-05-13T01:45:36.946Z,4.87
2023-05-13T01:48:05.557Z,5.17
2023-05-13T01:50:43.116Z,4.80
2023-05-13T01:53:12.133Z,6.73
2023-05-13T01:55:41.191Z,6.10
2023-05-13T01:58:09.379Z,4.83
2023-05-13T02:00:37.013Z,4.67
2023-05-13T02:03:08.275Z,5.50
2023-05-13T02:05:37.019Z,5.40
2023-05-13T02:08:07.964Z,5.07
2023-05-13T02:10:35.705Z,5.40
2023-05-13T02:13:04.993Z,5.33
2023-05-13T02:15:33.300Z,5.30
2023-05-13T02:18:00.941Z,5.13
2023-05-13T02:20:28.530Z,5.87
2023-05-13T02:22:56.336Z,5.37
2023-05-13T02:25:23.929Z,4.80
2023-05-13T02:27:52.800Z,5.57
2023-05-13T02:30:26.725Z,5.17
2023-05-13T02:32:54.318Z,5.53
2023-05-13T02:35:22.549Z,5.60
2023-05-13T02:37:50.280Z,5.90
2023-05-13T02:40:18.701Z,5.60
2023-05-13T02:42:47.449Z,5.77
2023-05-13T02:45:18.111Z,5.70
2023-05-13T02:47:52.691Z,5.63
2023-05-13T02:50:20.550Z,5.47
2023-05-13T02:52:48.964Z,6.07
2023-05-13T02:55:16.613Z,5.30
2023-05-13T02:57:44.572Z,5.77
2023-05-13T03:00:14.014Z,5.70
2023-05-13T03:02:41.566Z,5.73
2023-05-13T03:05:10.843Z,4.90
2023-05-13T03:07:38.376Z,5.13
2023-05-13T03:10:06.996Z,5.43
2023-05-13T03:12:34.985Z,5.37
2023-05-13T03:15:04.432Z,5.37
2023-05-13T03:17:33.533Z,5.17
2023-05-13T03:20:01.302Z,5.50
2023-05-13T03:22:30.886Z,5.00
2023-05-13T03:24:58.685Z,7.03
2023-05-13T03:27:32.518Z,5.17
2023-05-13T03:30:00.143Z,5.80
2023-05-13T03:32:30.554Z,5.00
2023-05-13T03:35:00.791Z,5.20
2023-05-13T03:37:31.262Z,5.50
2023-05-13T03:39:59.630Z,4.90
2023-05-13T03:42:27.784Z,5.43
2023-05-13T03:44:56.987Z,5.30
2023-05-13T03:47:25.309Z,4.90
2023-05-13T03:49:52.906Z,5.10
2023-05-13T03:52:20.584Z,6.50
2023-05-13T03:54:50.481Z,5.60
2023-05-13T03:57:18.103Z,6.53
2023-05-13T03:59:46.398Z,5.70
2023-05-13T04:02:14.012Z,5.17
2023-05-13T04:04:41.765Z,5.50
2023-05-13T04:07:09.339Z,6.90
2023-05-13T04:09:36.753Z,5.80
2023-05-13T04:12:06.700Z,5.20
2023-05-13T04:14:34.973Z,5.63
2023-05-13T04:17:03.891Z,6.50
2023-05-13T04:19:32.077Z,5.57
2023-05-13T04:21:59.822Z,5.77
2023-05-13T04:24:27.305Z,5.77
2023-05-13T04:26:54.755Z,5.73
2023-05-13T04:29:23.759Z,5.97
2023-05-13T04:31:52.005Z,5.77
2023-05-13T04:34:20.011Z,5.90
2023-05-13T04:36:48.702Z,5.57
2023-05-13T04:39:16.681Z,5.17
2023-05-13T04:41:44.949Z,5.13
2023-05-13T04:44:13.136Z,6.03
2023-05-13T04:46:44.513Z,6.73
2023-05-13T04:49:12.053Z,6.27
2023-05-13T04:51:41.129Z,5.53
2023-05-13T04:54:09.108Z,4.90
2023-05-13T04:56:36.638Z,6.63
2023-05-13T04:59:05.177Z,6.13
2023-05-13T05:01:33.000Z,6.30
2023-05-13T05:04:02.711Z,5.90
2023-05-13T05:06:31.331Z,6.50
2023-05-13T05:08:59.198Z,6.00
2023-05-13T05:11:26.752Z,5.63
2023-05-13T05:13:54.731Z,5.00
2023-05-13T05:16:23.098Z,6.00
2023-05-13T05:18:51.114Z,6.40
2023-05-13T05:21:20.432Z,5.80
2023-05-13T05:23:48.030Z,5.70
2023-05-13T05:26:15.717Z,6.03
2023-05-13T05:28:45.000Z,5.90
2023-05-13T05:31:14.022Z,6.63
2023-05-13T05:33:42.203Z,6.37
2023-05-13T05:36:09.990Z,5.70
2023-05-13T05:38:39.283Z,6.03
2023-05-13T05:41:07.818Z,5.70
2023-05-13T05:43:36.091Z,6.57
2023-05-13T05:46:05.249Z,5.57
2023-05-13T05:48:34.702Z,5.67
2023-05-13T05:51:03.751Z,5.60
2023-05-13T05:53:37.493Z,5.83
2023-05-13T05:56:08.031Z,5.83
2023-05-13T05:58:35.949Z,5.93
2023-05-13T06:01:04.084Z,5.63
2023-05-13T06:03:31.846Z,6.50
2023-05-13T06:06:00.354Z,5.70
2023-05-13T06:08:30.185Z,5.60
2023-05-13T06:10:58.696Z,5.40
2023-05-13T06:13:29.056Z,5.87
2023-05-13T06:15:56.795Z,5.20
2023-05-13T06:18:24.856Z,5.63
2023-05-13T06:20:52.442Z,5.80
2023-05-13T06:23:20.044Z,5.50
2023-05-13T06:25:48.179Z,6.10
2023-05-13T06:28:15.929Z,5.67
2023-05-13T06:30:44.891Z,5.80
2023-05-13T06:33:12.835Z,5.40
2023-05-13T06:35:40.538Z,6.07
2023-05-13T06:38:10.286Z,4.80
2023-05-13T06:40:38.042Z,5.47
2023-05-13T06:43:06.297Z,5.23
2023-05-13T06:45:38.690Z,6.00
2023-05-13T06:48:07.834Z,5.70
2023-05-13T06:50:37.570Z,6.17
2023-05-13T06:53:05.761Z,6.23
2023-05-13T06:55:35.835Z,6.63
2023-05-13T06:58:04.434Z,5.33
2023-05-13T07:00:32.220Z,6.23
2023-05-13T07:02:59.899Z,6.03
2023-05-13T07:05:28.784Z,5.53
2023-05-13T07:07:56.383Z,7.03
2023-05-13T07:10:24.970Z,6.73
2023-05-13T07:12:52.650Z,5.60
2023-05-13T07:15:20.697Z,6.60
2023-05-13T07:17:48.677Z,5.37
2023-05-13T07:20:16.561Z,5.40
2023-05-13T07:22:46.380Z,5.30
2023-05-13T07:25:14.098Z,5.40
2023-05-13T07:27:41.701Z,5.90
2023-05-13T07:30:10.563Z,5.80
2023-05-13T07:32:38.255Z,6.23
2023-05-13T07:35:06.748Z,5.97
2023-05-13T07:37:34.298Z,5.60
2023-05-13T07:40:04.098Z,5.40
2023-05-13T07:42:32.944Z,5.43
2023-05-13T07:45:00.489Z,5.57
2023-05-13T07:47:29.106Z,5.40
2023-05-13T07:49:56.742Z,4.97
2023-05-13T07:52:24.540Z,5.23
2023-05-13T07:54:52.095Z,6.07
2023-05-13T07:57:21.033Z,5.17
2023-05-13T07:59:48.712Z,4.87
2023-05-13T08:02:16.315Z,5.47
2023-05-13T08:04:43.865Z,5.60
2023-05-13T08:07:15.538Z,5.70
2023-05-13T08:09:43.292Z,6.17
2023-05-13T08:12:10.825Z,6.77
2023-05-13T08:14:40.080Z,5.93
2023-05-13T08:17:08.090Z,6.17
2023-05-13T08:19:37.435Z,5.43
2023-05-13T08:22:05.880Z,6.10
2023-05-13T08:24:33.434Z,5.63
2023-05-13T08:27:00.993Z,5.80
2023-05-13T08:29:28.547Z,6.47
2023-05-13T08:31:58.189Z,6.67
2023-05-13T08:34:26.062Z,5.17
2023-05-13T08:36:53.689Z,5.80
2023-05-13T08:39:22.026Z,5.93
2023-05-13T08:41:51.027Z,6.20
2023-05-13T08:44:19.838Z,5.67
2023-05-13T08:46:53.025Z,5.70
2023-05-13T08:49:22.033Z,5.40
2023-05-13T08:51:50.408Z,5.43
2023-05-13T08:54:18.717Z,6.53
2023-05-13T08:56:46.173Z,6.10
2023-05-13T08:59:13.802Z,6.10
2023-05-13T09:01:41.358Z,5.33
2023-05-13T09:04:11.783Z,6.07
2023-05-13T09:06:40.642Z,6.10
2023-05-13T09:09:09.640Z,5.17
2023-05-13T09:11:39.183Z,5.30
2023-05-13T09:14:08.259Z,5.43
2023-05-13T09:16:37.265Z,5.33
2023-05-13T09:19:08.001Z,6.37
2023-05-13T09:21:36.566Z,6.60
2023-05-13T09:24:13.256Z,5.03
2023-05-13T09:26:42.877Z,5.53
2023-05-13T09:29:22.076Z,5.43
2023-05-13T09:31:51.743Z,5.80
2023-05-13T09:34:26.676Z,5.80
2023-05-13T09:37:02.668Z,5.57
2023-05-13T09:39:33.853Z,4.90
2023-05-13T09:42:04.809Z,5.47
2023-05-13T09:44:33.524Z,5.47
2023-05-13T09:47:02.647Z,5.70
2023-05-13T09:49:32.820Z,5.00
2023-05-13T09:52:00.453Z,5.87
2023-05-13T09:54:34.766Z,5.90
2023-05-13T09:57:05.245Z,5.10
2023-05-13T09:59:33.300Z,6.10
2023-05-13T10:02:04.898Z,5.47
2023-05-13T10:04:32.698Z,5.73
2023-05-13T10:07:03.404Z,4.63
2023-05-13T10:09:35.914Z,4.83
2023-05-13T10:12:08.764Z,5.03
2023-05-13T10:14:38.251Z,5.20
2023-05-13T10:17:07.484Z,4.47
2023-05-13T10:19:36.126Z,4.47
2023-05-13T10:22:04.789Z,4.30
2023-05-13T10:24:33.481Z,4.77
2023-05-13T10:27:02.473Z,4.77
2023-05-13T10:29:32.275Z,4.90
2023-05-13T10:32:01.175Z,5.00
2023-05-13T10:34:31.727Z,4.53
2023-05-13T10:37:34.292Z,5.40
2023-05-13T10:40:21.591Z,4.30
2023-05-13T10:42:55.820Z,4.70
2023-05-13T10:45:27.247Z,4.10
2023-05-13T10:47:56.029Z,5.10
2023-05-13T10:50:25.558Z,4.17
2023-05-13T10:52:58.295Z,4.30
2023-05-13T10:55:28.412Z,4.27
2023-05-13T10:58:10.771Z,5.23
2023-05-13T11:00:40.260Z,4.50
2023-05-13T11:03:12.748Z,4.73
2023-05-13T11:05:44.668Z,4.77
2023-05-13T11:08:12.736Z,5.03
2023-05-13T11:10:41.818Z,5.10
2023-05-13T11:13:24.531Z,4.20
2023-05-13T11:15:55.048Z,3.60
2023-05-13T11:18:49.622Z,4.50
2023-05-13T11:21:17.245Z,4.07
2023-05-13T11:23:52.906Z,4.80
2023-05-13T11:26:21.356Z,4.23
2023-05-13T11:28:57.037Z,4.00
2023-05-13T11:31:29.129Z,4.37
2023-05-13T11:34:10.485Z,4.07
2023-05-13T11:36:39.780Z,3.63
2023-05-13T11:39:13.748Z,4.20
2023-05-13T11:41:43.549Z,3.53
2023-05-13T11:44:13.676Z,5.10
2023-05-13T11:46:53.620Z,4.30
2023-05-13T11:49:32.915Z,4.57
2023-05-13T11:52:00.779Z,4.27
2023-05-13T11:54:28.549Z,3.63
2023-05-13T11:57:04.409Z,4.27
2023-05-13T11:59:41.671Z,5.00
2023-05-13T12:02:14.394Z,4.23
2023-05-13T12:04:42.061Z,4.47
2023-05-13T12:07:12.654Z,4.80
2023-05-13T12:09:47.183Z,4.67
2023-05-13T12:12:16.018Z,4.10
2023-05-13T12:14:44.501Z,3.87
2023-05-13T12:17:12.251Z,4.40
2023-05-13T12:19:41.358Z,4.47
2023-05-13T12:22:09.758Z,4.87
2023-05-13T12:24:37.385Z,4.30
2023-05-13T12:27:11.526Z,4.23
2023-05-13T12:29:43.030Z,4.20
2023-05-13T12:32:11.793Z,3.50
2023-05-13T12:34:41.469Z,4.33
2023-05-13T12:37:13.036Z,3.77
2023-05-13T12:39:41.580Z,4.93
2023-05-13T12:42:15.864Z,3.83
2023-05-13T12:44:45.458Z,3.87
2023-05-13T12:47:15.531Z,4.87
2023-05-13T12:49:53.879Z,4.23
2023-05-13T12:52:22.730Z,3.80
2023-05-13T12:54:50.740Z,4.10
2023-05-13T12:57:18.898Z,3.63
2023-05-13T12:59:46.698Z,3.83
2023-05-13T13:02:14.551Z,3.53
2023-05-13T13:04:42.140Z,3.17
2023-05-13T13:07:14.396Z,4.80
2023-05-13T13:09:42.031Z,3.03
2023-05-13T13:12:10.271Z,3.27
2023-05-13T13:14:37.847Z,3.80
2023-05-13T13:17:05.875Z,3.30
2023-05-13T13:19:33.441Z,3.70
2023-05-13T13:22:02.254Z,4.20
2023-05-13T13:24:32.224Z,3.67
2023-05-13T13:26:59.923Z,3.80
2023-05-13T13:29:27.477Z,3.57
2023-05-13T13:31:55.035Z,3.50
2023-05-13T13:34:22.488Z,3.60
2023-05-13T13:36:51.000Z,2.80
2023-05-13T13:39:18.767Z,3.20
2023-05-13T13:41:48.076Z,3.03
2023-05-13T13:44:15.682Z,2.63
2023-05-13T13:46:43.253Z,3.77
2023-05-13T13:49:22.562Z,3.30
2023-05-13T13:51:51.127Z,3.33
2023-05-13T13:54:18.606Z,2.80
2023-05-13T13:56:47.618Z,3.50
2023-05-13T13:59:15.110Z,3.23
2023-05-13T14:01:43.923Z,3.37
2023-05-13T14:04:12.405Z,3.27
2023-05-13T14:06:40.044Z,3.80
2023-05-13T14:09:08.632Z,3.03
2023-05-13T14:11:36.295Z,3.20
2023-05-13T14:14:05.805Z,3.03
2023-05-13T14:16:33.550Z,2.80
2023-05-13T14:19:01.525Z,2.90
2023-05-13T14:21:30.016Z,2.97
2023-05-13T14:23:57.692Z,2.77
2023-05-13T14:26:26.112Z,2.93
2023-05-13T14:28:54.914Z,2.93
2023-05-13T14:31:23.807Z,2.40
2023-05-13T14:33:52.273Z,2.70
2023-05-13T14:36:20.725Z,2.90
2023-05-13T14:38:48.342Z,2.90
2023-05-13T14:41:19.758Z,2.77
2023-05-13T14:43:47.599Z,2.33
2023-05-13T14:46:15.577Z,3.37
2023-05-13T14:48:44.549Z,2.50
2023-05-13T14:51:12.351Z,2.70
2023-05-13T14:53:40.534Z,2.40
2023-05-13T14:56:08.506Z,3.10
2023-05-13T14:58:36.123Z,2.90
2023-05-13T15:01:04.447Z,2.90
2023-05-13T15:03:32.065Z,3.10
2023-05-13T15:06:01.609Z,3.10
2023-05-13T15:08:29.572Z,2.70
2023-05-13T15:10:57.234Z,2.90
2023-05-13T15:13:27.269Z,2.93
2023-05-13T15:15:55.617Z,3.40
2023-05-13T15:18:23.232Z,3.10
2023-05-13T15:20:51.367Z,3.70
2023-05-13T15:23:20.385Z,2.67
2023-05-13T15:25:48.553Z,2.63
2023-05-13T15:28:16.104Z,3.10
2023-05-13T15:30:43.850Z,2.73
2023-05-13T15:33:11.902Z,3.03
2023-05-13T15:35:40.075Z,3.00
2023-05-13T15:38:08.178Z,3.10
2023-05-13T15:40:39.899Z,3.33
2023-05-13T15:43:07.541Z,2.97
2023-05-13T15:45:35.833Z,3.17
2023-05-13T15:48:03.977Z,2.80
2023-05-13T15:50:31.861Z,3.83
2023-05-13T15:53:00.226Z,3.63
2023-05-13T15:55:27.917Z,2.83
2023-05-13T15:57:56.751Z,2.90
2023-05-13T16:00:24.743Z,2.97
2023-05-13T16:02:52.530Z,2.77
2023-05-13T16:05:20.239Z,2.97
2023-05-13T16:07:47.788Z,2.90
2023-05-13T16:10:15.461Z,3.27
2023-05-13T16:12:43.491Z,3.20
2023-05-13T16:15:13.081Z,3.70
2023-05-13T16:17:40.741Z,3.77
2023-05-13T16:20:11.681Z,3.60
2023-05-13T16:22:40.373Z,3.53
2023-05-13T16:25:11.458Z,3.10
2023-05-13T16:27:42.952Z,2.80
2023-05-13T16:30:12.916Z,2.40
2023-05-13T16:32:41.217Z,3.17
2023-05-13T16:35:11.700Z,3.40
2023-05-13T16:37:39.250Z,2.90
2023-05-13T16:40:08.416Z,3.30
2023-05-13T16:42:35.870Z,3.10
2023-05-13T16:45:04.322Z,2.77
2023-05-13T16:47:33.671Z,2.90
2023-05-13T16:50:01.364Z,2.47
2023-05-13T16:52:31.329Z,2.43
2023-05-13T16:54:59.386Z,2.63
2023-05-13T16:57:27.755Z,2.70
2023-05-13T16:59:55.305Z,2.70
2023-05-13T17:02:22.979Z,3.07
2023-05-13T17:04:52.596Z,2.47
2023-05-13T17:07:20.302Z,3.47
2023-05-13T17:09:47.912Z,2.73
2023-05-13T17:12:16.646Z,3.10
2023-05-13T17:14:44.190Z,2.57
2023-05-13T17:17:12.461Z,2.80
2023-05-13T17:19:40.051Z,2.80
2023-05-13T17:22:09.053Z,2.90
2023-05-13T17:24:38.385Z,2.60
2023-05-13T17:27:06.457Z,3.07
2023-05-13T17:29:34.649Z,2.97
2023-05-13T17:32:02.420Z,3.50
2023-05-13T17:34:30.043Z,3.07
2023-05-13T17:36:57.696Z,2.70
2023-05-13T17:39:26.695Z,3.13
2023-05-13T17:41:54.926Z,3.33
2023-05-13T17:44:23.832Z,3.27
2023-05-13T17:46:51.356Z,4.10
2023-05-13T17:49:19.046Z,3.80
2023-05-13T17:51:46.635Z,3.57
2023-05-13T17:54:14.150Z,7.27
2023-05-13T17:56:43.334Z,6.07
2023-05-13T17:59:11.698Z,4.50
2023-05-13T18:01:39.822Z,3.90
2023-05-13T18:04:07.603Z,4.30
2023-05-13T18:06:35.060Z,4.10
2023-05-13T18:09:03.091Z,4.63
2023-05-13T18:11:30.688Z,3.80
2023-05-13T18:14:00.314Z,4.60
2023-05-13T18:16:27.992Z,4.00
2023-05-13T18:18:56.347Z,4.57
2023-05-13T18:21:24.170Z,5.50
2023-05-13T18:23:51.612Z,5.43
2023-05-13T18:26:20.287Z,4.90
2023-05-13T18:28:47.921Z,4.70
2023-05-13T18:31:16.996Z,5.33
2023-05-13T18:33:44.665Z,4.90
2023-05-13T18:36:12.338Z,4.00
2023-05-13T18:38:40.783Z,4.60
2023-05-13T18:41:08.359Z,3.90
2023-05-13T18:43:35.836Z,4.23
2023-05-13T18:46:04.054Z,4.40
2023-05-13T18:48:33.090Z,4.20
2023-05-13T18:51:00.571Z,4.63
2023-05-13T18:53:28.184Z,4.07
2023-05-13T18:55:55.818Z,4.33
2023-05-13T18:58:23.978Z,4.00
2023-05-13T19:00:52.430Z,3.70
2023-05-13T19:03:20.266Z,3.93
2023-05-13T19:05:49.398Z,3.87
2023-05-13T19:08:16.891Z,4.60
2023-05-13T19:10:45.417Z,3.40
2023-05-13T19:13:14.541Z,4.60
2023-05-13T19:15:42.033Z,3.43
2023-05-13T19:18:09.649Z,3.97
2023-05-13T19:20:37.242Z,3.67
2023-05-13T19:23:06.984Z,3.67
2023-05-13T19:25:35.032Z,4.20
2023-05-13T19:28:02.796Z,4.33
2023-05-13T19:30:30.401Z,3.70
2023-05-13T19:32:57.888Z,4.00
2023-05-13T19:35:26.128Z,4.27
2023-05-13T19:37:53.955Z,3.50
2023-05-13T19:40:23.005Z,4.37
2023-05-13T19:42:50.877Z,3.73
2023-05-13T19:45:19.791Z,3.80
2023-05-13T19:47:47.473Z,4.50
2023-05-13T19:50:15.108Z,4.37
2023-05-13T19:52:43.606Z,4.23
2023-05-13T19:55:12.261Z,4.80
2023-05-13T19:57:42.546Z,4.23
2023-05-13T20:00:11.775Z,3.90
2023-05-13T20:02:40.150Z,4.10
2023-05-13T20:05:09.024Z,4.87
2023-05-13T20:07:37.218Z,4.63
2023-05-13T20:10:06.132Z,4.90
2023-05-13T20:12:33.650Z,4.90
2023-05-13T20:15:03.659Z,4.60
2023-05-13T20:17:31.528Z,4.03
2023-05-13T20:19:59.996Z,3.70
2023-05-13T20:22:27.661Z,4.50
2023-05-13T20:24:55.209Z,4.50
2023-05-13T20:27:22.928Z,4.30
2023-05-13T20:29:50.919Z,4.63
2023-05-13T20:32:24.999Z,4.53
2023-05-13T20:34:54.294Z,5.33
2023-05-13T20:37:24.062Z,5.30
2023-05-13T20:39:51.988Z,5.27
2023-05-13T20:42:21.429Z,4.57
2023-05-13T20:44:49.660Z,5.70
2023-05-13T20:47:17.546Z,4.57
2023-05-13T20:49:46.501Z,5.23
2023-05-13T20:52:14.033Z,4.80
2023-05-13T20:54:41.634Z,4.60
2023-05-13T20:57:09.887Z,4.43
2023-05-13T20:59:37.764Z,4.87
2023-05-13T21:02:05.997Z,4.77
2023-05-13T21:04:33.424Z,4.73
2023-05-13T21:07:03.809Z,5.30
2023-05-13T21:09:31.410Z,5.47
2023-05-13T21:11:58.916Z,5.20
2023-05-13T21:14:26.461Z,5.03
2023-05-13T21:16:54.623Z,5.10
2023-05-13T21:19:23.091Z,5.63
2023-05-13T21:21:51.152Z,6.00
2023-05-13T21:24:20.584Z,6.07
2023-05-13T21:26:48.913Z,6.10
2023-05-13T21:29:18.784Z,6.87
2023-05-13T21:31:46.700Z,6.87
2023-05-13T21:34:14.307Z,6.83
2023-05-13T21:36:41.955Z,6.67
2023-05-13T21:39:10.416Z,5.97
2023-05-13T21:41:40.147Z,6.10
2023-05-13T21:44:08.012Z,6.17
2023-05-13T21:46:35.516Z,6.00
2023-05-13T21:49:03.954Z,7.10
2023-05-13T21:51:32.494Z,6.30
2023-05-13T21:54:01.514Z,6.50
2023-05-13T21:56:28.950Z,7.03
2023-05-13T21:58:57.744Z,5.80
2023-05-13T22:01:26.021Z,6.43
2023-05-13T22:03:54.007Z,6.27
2023-05-13T22:06:21.431Z,5.13
2023-05-13T22:08:48.876Z,6.93
2023-05-13T22:11:16.664Z,5.97
2023-05-13T22:13:45.046Z,6.67
2023-05-13T22:16:14.527Z,5.87
2023-05-13T22:18:42.416Z,6.10
2023-05-13T22:21:10.118Z,5.43
2023-05-13T22:23:37.987Z,6.50
2023-05-13T22:26:06.379Z,5.30
2023-05-13T22:28:34.035Z,5.30
2023-05-13T22:31:01.481Z,4.80
2023-05-13T22:33:30.326Z,4.90
2023-05-13T22:35:58.524Z,5.20
2023-05-13T22:38:26.212Z,5.27
2023-05-13T22:40:53.794Z,4.63
2023-05-13T22:43:21.295Z,5.30
2023-05-13T22:45:49.602Z,5.87
2023-05-13T22:48:17.126Z,5.27
2023-05-13T22:50:46.007Z,5.70
2023-05-13T22:53:13.672Z,4.80
2023-05-13T22:55:41.233Z,5.07
2023-05-13T22:58:09.435Z,4.80
2023-05-13T23:00:37.065Z,5.57
2023-05-13T23:03:05.070Z,5.70
2023-05-13T23:05:32.549Z,6.07
2023-05-13T23:08:01.354Z,5.30
2023-05-13T23:10:30.091Z,5.20
2023-05-13T23:12:57.643Z,5.23
2023-05-13T23:15:25.977Z,4.90
2023-05-13T23:17:53.730Z,4.97
2023-05-13T23:20:21.510Z,4.67
2023-05-13T23:22:49.125Z,5.20
2023-05-13T23:25:18.241Z,4.90
2023-05-13T23:27:45.690Z,5.57
2023-05-13T23:30:14.838Z,5.10
2023-05-13T23:32:42.445Z,6.10
2023-05-13T23:35:10.627Z,5.13
2023-05-13T23:37:38.108Z,5.33
2023-05-13T23:40:07.035Z,5.37
2023-05-13T23:42:37.198Z,5.50
2023-05-13T23:45:05.649Z,5.13
2023-05-13T23:47:33.151Z,5.03
2023-05-13T23:50:00.705Z,4.93
2023-05-13T23:52:28.153Z,5.10
2023-05-13T23:54:56.360Z,5.40
2023-05-13T23:57:23.986Z,5.60
2023-05-13T23:59:52.793Z,5.20
